Time;durP1;ratioP1;P1;durP2;ratioP2;P2;SDS_P1;SDS_P2;PMS_P1;PMS_P2;Temp;Humidity;BMP_temperature;BMP_pressure;BME280_temperature;BME280_humidity;BME280_pressure;Samples;Min_cycle;Max_cycle;Signal;HPM_P1;HPM_P2
2022/02/18 00:01:16;;;;;;;19.40;2.67;;;;;;;5.62;100.00;100977.38;5069926;28;20041;-54
2022/02/18 00:03:45;;;;;;;;;;;;;;;5.68;100.00;100988.41;5074382;28;20092;-44
2022/02/18 00:06:13;;;;;;;16.33;2.42;;;;;;;5.66;100.00;100982.44;5071173;28;19932;-44
2022/02/18 00:08:41;;;;;;;14.63;3.20;;;;;;;5.65;100.00;100985.09;5070516;28;20037;-43
2022/02/18 00:11:11;;;;;;;24.38;3.03;;;;;;;5.64;100.00;100976.41;5072917;28;20476;-54
2022/02/18 00:13:39;;;;;;;17.98;2.35;;;;;;;5.68;100.00;100971.91;5070392;28;20056;-54
2022/02/18 00:16:07;;;;;;;17.58;3.03;;;;;;;5.68;100.00;100982.34;5070154;28;20071;-55
2022/02/18 00:18:35;;;;;;;17.05;2.92;;;;;;;5.70;100.00;100967.47;5073619;28;20051;-53
2022/02/18 00:21:03;;;;;;;12.43;2.50;;;;;;;5.68;100.00;100972.75;5073128;28;20119;-50
2022/02/18 00:23:32;;;;;;;18.45;3.03;;;;;;;5.70;100.00;100985.72;5071970;28;20052;-57
2022/02/18 00:26:00;;;;;;;13.80;2.55;;;;;;;5.74;100.00;100982.94;5072378;28;20538;-56
2022/02/18 00:28:31;;;;;;;16.85;2.83;;;;;;;5.71;100.00;100982.22;5073413;28;20148;-44
2022/02/18 00:31:00;;;;;;;15.35;2.72;;;;;;;5.77;100.00;100974.13;5073473;28;20067;-56
2022/02/18 00:33:29;;;;;;;18.95;3.30;;;;;;;5.76;100.00;100975.03;5073523;28;20052;-55
2022/02/18 00:35:57;;;;;;;13.73;2.55;;;;;;;5.79;100.00;100972.28;5069055;28;20160;-47
2022/02/18 00:38:25;;;;;;;17.23;2.88;;;;;;;5.75;100.00;100966.38;5070381;28;20043;-44
2022/02/18 00:40:53;;;;;;;22.83;2.95;;;;;;;5.76;100.00;100959.38;5072058;28;20053;-47
2022/02/18 00:43:21;;;;;;;13.68;2.90;;;;;;;5.74;100.00;100954.22;5070862;28;20114;-45
2022/02/18 00:45:51;;;;;;;16.60;2.25;;;;;;;5.80;100.00;100949.66;5067871;28;20051;-55
2022/02/18 00:48:19;;;;;;;12.52;3.10;;;;;;;5.81;100.00;100943.50;5072922;28;20429;-49
2022/02/18 00:50:47;;;;;;;14.32;2.28;;;;;;;5.81;100.00;100938.28;5073061;28;20131;-43
2022/02/18 00:53:15;;;;;;;15.63;2.33;;;;;;;5.80;100.00;100941.84;5072907;28;20112;-54
2022/02/18 00:55:44;;;;;;;16.92;2.35;;;;;;;5.81;100.00;100951.34;5072603;28;20499;-54
2022/02/18 00:58:13;;;;;;;14.93;2.75;;;;;;;5.83;100.00;100945.16;5072306;28;20040;-53
2022/02/18 01:00:41;;;;;;;15.70;3.08;;;;;;;5.79;100.00;100948.81;5067659;28;20052;-55
2022/02/18 01:03:10;;;;;;;18.90;2.88;;;;;;;5.77;100.00;100950.66;5067796;28;20049;-53
2022/02/18 01:05:38;;;;;;;14.80;2.05;;;;;;;5.78;100.00;100951.50;5072556;28;20068;-54
2022/02/18 01:08:06;;;;;;;14.57;2.78;;;;;;;5.77;100.00;100948.03;5072400;28;20218;-48
2022/02/18 01:10:35;;;;;;;18.27;3.15;;;;;;;5.82;100.00;100938.25;5072570;28;20553;-44
2022/02/18 01:13:03;;;;;;;18.27;2.65;;;;;;;5.81;100.00;100930.47;5072555;28;20072;-46
2022/02/18 01:15:31;;;;;;;12.63;1.90;;;;;;;5.79;100.00;100927.94;5072507;28;20055;-46
2022/02/18 01:17:59;;;;;;;21.45;2.67;;;;;;;5.86;100.00;100921.53;5072596;28;20509;-44
2022/02/18 01:20:29;;;;;;;12.43;2.20;;;;;;;5.87;100.00;100938.03;5072619;28;20044;-48
2022/02/18 01:22:57;;;;;;;15.80;2.50;;;;;;;5.85;100.00;100932.88;5072506;28;20093;-46
2022/02/18 01:25:25;;;;;;;19.33;2.67;;;;;;;5.87;100.00;100925.00;5072504;28;20052;-45
2022/02/18 01:27:56;;;;;;;16.10;2.55;;;;;;;5.80;100.00;100919.19;5072446;28;20371;-55
2022/02/18 01:30:25;;;;;;;16.02;3.15;;;;;;;5.84;100.00;100920.75;5067357;28;20095;-52
2022/02/18 01:32:54;;;;;;;16.30;2.83;;;;;;;5.79;100.00;100927.09;5070072;28;20044;-54
2022/02/18 01:35:22;;;;;;;9.98;1.80;;;;;;;5.81;100.00;100923.50;5072334;28;20036;-53
2022/02/18 01:37:53;;;;;;;13.73;2.20;;;;;;;5.75;100.00;100921.16;5072425;28;20127;-54
2022/02/18 01:40:22;;;;;;;18.13;3.15;;;;;;;5.73;100.00;100926.44;5072026;28;20536;-55
2022/02/18 01:42:51;;;;;;;15.48;2.75;;;;;;;5.78;100.00;100915.81;5072208;28;20048;-54
2022/02/18 01:45:19;;;;;;;17.00;3.10;;;;;;;5.77;100.00;100906.28;5072249;28;20048;-53
2022/02/18 01:47:48;;;;;;;14.00;2.42;;;;;;;5.80;100.00;100905.31;5072441;28;20499;-52
2022/02/18 01:50:16;;;;;;;11.55;2.22;;;;;;;5.75;100.00;100898.53;5072214;28;20388;-55
2022/02/18 01:52:48;;;;;;;17.40;2.67;;;;;;;5.78;100.00;100905.38;5072297;28;20051;-55
2022/02/18 01:55:19;;;;;;;14.68;2.20;;;;;;;5.80;100.00;100905.31;5072226;28;20506;-55
2022/02/18 01:57:49;;;;;;;19.05;2.80;;;;;;;5.76;100.00;100886.31;5070889;28;20044;-54
2022/02/18 02:00:19;;;;;;;11.32;2.72;;;;;;;5.76;100.00;100881.94;5067461;28;20051;-54
2022/02/18 02:02:47;;;;;;;18.25;2.30;;;;;;;5.76;100.00;100881.94;5070714;28;20123;-54
2022/02/18 02:05:16;;;;;;;11.02;2.33;;;;;;;5.81;100.00;100888.69;5071917;28;20037;-54
2022/02/18 02:07:45;;;;;;;14.93;2.30;;;;;;;5.79;100.00;100893.16;5071774;28;20372;-55
2022/02/18 02:10:15;;;;;;;14.85;2.80;;;;;;;5.79;100.00;100890.56;5068516;28;20127;-54
2022/02/18 02:12:47;;;;;;;18.20;3.20;;;;;;;5.77;100.00;100880.19;5069896;28;20514;-54
2022/02/18 02:15:16;;;;;;;20.50;2.88;;;;;;;5.74;100.00;100873.34;5073889;28;20036;-52
2022/02/18 02:17:44;;;;;;;15.05;2.15;;;;;;;5.77;100.00;100861.91;5075935;28;20044;-53
2022/02/18 02:20:13;;;;;;;12.02;2.33;;;;;;;5.81;100.00;100858.25;5076382;28;20064;-55
2022/02/18 02:22:42;;;;;;;12.70;2.55;;;;;;;5.83;100.00;100851.19;5075727;28;20111;-44
2022/02/18 02:25:10;;;;;;;11.35;2.92;;;;;;;5.81;100.00;100837.38;5075657;28;20529;-44
2022/02/18 02:27:40;;;;;;;16.40;2.35;;;;;;;5.87;100.00;100826.63;5073730;28;20052;-44
2022/02/18 02:30:11;;;;;;;12.45;2.58;;;;;;;5.91;100.00;100828.19;5070915;28;20044;-45
2022/02/18 02:32:40;;;;;;;13.93;2.60;;;;;;;5.92;100.00;100824.66;5073742;28;20052;-55
2022/02/18 02:35:09;;;;;;;15.48;3.28;;;;;;;5.91;100.00;100816.91;5071469;28;20052;-45
2022/02/18 02:37:37;;;;;;;16.23;2.75;;;;;;;5.91;100.00;100804.69;5073499;28;20514;-44
2022/02/18 02:40:08;;;;;;;17.05;2.80;;;;;;;5.94;100.00;100790.66;5075522;28;20052;-55
2022/02/18 02:42:36;;;;;;;14.75;3.00;;;;;;;5.99;100.00;100778.28;5075292;28;20053;-46
2022/02/18 02:45:05;;;;;;;21.48;3.30;;;;;;;5.98;100.00;100771.34;5075274;28;20454;-45
2022/02/18 02:47:33;;;;;;;16.70;3.00;;;;;;;5.98;100.00;100767.91;5075374;28;20051;-46
2022/02/18 02:50:01;;;;;;;11.63;2.70;;;;;;;5.99;100.00;100769.59;5075482;28;20059;-53
2022/02/18 02:52:29;;;;;;;17.38;3.22;;;;;;;5.95;100.00;100773.25;5075500;28;20517;-44
2022/02/18 02:54:58;;;;;;;18.38;3.30;;;;;;;6.00;100.00;100771.28;5075259;28;20068;-43
2022/02/18 02:57:27;;;;;;;15.30;4.57;;;;;;;5.99;100.00;100762.59;5075266;28;20387;-55
2022/02/18 02:59:55;;;;;;;15.07;3.90;;;;;;;6.10;100.00;100767.31;5071670;28;20063;-55
2022/02/18 03:02:23;;;;;;;19.42;4.75;;;;;;;6.03;100.00;100760.72;5070385;28;20052;-55
2022/02/18 03:04:52;;;;;;;17.52;3.58;;;;;;;6.00;100.00;100747.78;5074886;28;20048;-55
2022/02/18 03:07:20;;;;;;;27.42;3.70;;;;;;;5.99;100.00;100749.56;5074944;28;20410;-47
2022/02/18 03:09:52;;;;;;;17.38;4.30;;;;;;;6.00;100.00;100740.81;5074966;28;20052;-54
2022/02/18 03:12:20;;;;;;;13.18;4.10;;;;;;;5.99;100.00;100735.66;5074455;28;20045;-54
2022/02/18 03:14:49;;;;;;;17.55;4.05;;;;;;;5.97;100.00;100729.63;5070844;28;20090;-56
2022/02/18 03:17:17;;;;;;;15.48;3.55;;;;;;;5.99;100.00;100725.22;5071262;28;20539;-45
2022/02/18 03:19:45;;;;;;;21.65;4.97;;;;;;;6.04;100.00;100723.22;5074884;28;20053;-55
2022/02/18 03:22:17;;;;;;;17.55;3.50;;;;;;;6.03;100.00;100738.03;5074710;28;20518;-45
2022/02/18 03:24:45;;;;;;;18.90;4.03;;;;;;;5.95;100.00;100731.47;5070959;28;20049;-56
2022/02/18 03:27:13;;;;;;;17.45;3.30;;;;;;;5.93;100.00;100719.34;5070878;28;20048;-54
2022/02/18 03:29:41;;;;;;;18.80;3.70;;;;;;;5.95;100.00;100721.03;5073247;28;20451;-45
2022/02/18 03:32:10;;;;;;;13.75;3.40;;;;;;;5.97;100.00;100717.44;5069468;28;20590;-55
2022/02/18 03:34:39;;;;;;;19.67;3.47;;;;;;;5.92;100.00;100709.81;5072989;28;20044;-53
2022/02/18 03:37:07;;;;;;;16.63;2.92;;;;;;;5.93;100.00;100716.72;5074352;28;20053;-45
2022/02/18 03:39:35;;;;;;;18.92;3.25;;;;;;;5.92;100.00;100701.97;5069816;28;20052;-44
2022/02/18 03:42:04;;;;;;;13.88;2.78;;;;;;;5.97;100.00;100706.13;5071219;28;20573;-56
2022/02/18 03:44:32;;;;;;;19.98;3.78;;;;;;;5.92;100.00;100698.53;5074114;28;20155;-44
2022/02/18 03:47:00;;;;;;;17.50;3.10;;;;;;;5.95;100.00;100697.53;5073085;28;20048;-44
2022/02/18 03:49:30;;;;;;;16.65;3.65;;;;;;;5.98;100.00;100690.41;5074148;28;20056;-55
2022/02/18 03:51:58;;;;;;;24.05;3.30;;;;;;;5.98;100.00;100686.97;5073369;28;20079;-45
2022/02/18 03:54:26;;;;;;;25.08;4.65;;;;;;;5.96;100.00;100680.94;5070864;28;20064;-45
2022/02/18 03:56:55;;;;;;;13.77;2.85;;;;;;;6.02;100.00;100678.06;5071421;28;20044;-50
2022/02/18 03:59:23;;;;;;;17.92;3.20;;;;;;;6.04;100.00;100669.25;5074096;28;20094;-46
2022/02/18 04:01:51;;;;;;;19.25;3.20;;;;;;;6.04;100.00;100669.25;5074096;28;20114;-45
2022/02/18 04:04:19;;;;;;;20.63;3.33;;;;;;;6.06;100.00;100658.72;5073356;28;20499;-46
2022/02/18 04:06:49;;;;;;;16.65;3.10;;;;;;;6.08;100.00;100656.88;5073735;28;20059;-56
2022/02/18 04:09:17;;;;;;;21.73;3.35;;;;;;;6.07;100.00;100644.75;5073832;28;20044;-48
2022/02/18 04:11:45;;;;;;;19.52;3.03;;;;;;;6.08;100.00;100626.41;5073727;28;20064;-55
2022/02/18 04:14:13;;;;;;;18.08;3.75;;;;;;;6.11;100.00;100616.72;5073857;28;20036;-55
2022/02/18 04:16:41;;;;;;;24.63;4.53;;;;;;;6.08;100.00;100610.72;5073605;28;20380;-47
2022/02/18 04:19:09;;;;;;;27.77;3.65;;;;;;;6.15;100.00;100597.34;5073448;28;20084;-56
2022/02/18 04:21:37;;;;;;;18.85;3.28;;;;;;;6.18;100.00;100592.81;5072004;28;20052;-44
2022/02/18 04:24:07;;;;;;;16.80;3.70;;;;;;;6.16;100.00;100570.31;5069780;28;20053;-45
2022/02/18 04:26:35;;;;;;;20.02;4.63;;;;;;;6.17;100.00;100564.19;5071624;28;20424;-48
2022/02/18 04:29:03;;;;;;;23.55;4.20;;;;;;;6.11;100.00;100551.44;5073603;28;20048;-46
2022/02/18 04:31:31;;;;;;;17.90;3.60;;;;;;;6.14;100.00;100530.41;5068675;28;20063;-56
2022/02/18 04:33:59;;;;;;;18.83;3.70;;;;;;;6.15;100.00;100525.09;5071238;28;20095;-55
2022/02/18 04:36:27;;;;;;;20.55;4.63;;;;;;;6.16;100.00;100511.13;5073056;28;20548;-56
2022/02/18 04:38:55;;;;;;;22.02;3.92;;;;;;;6.09;100.00;100501.91;5070546;28;20040;-54
2022/02/18 04:41:25;;;;;;;22.50;3.55;;;;;;;5.99;100.00;100506.75;5069799;28;20125;-55
2022/02/18 04:43:53;;;;;;;17.95;3.88;;;;;;;6.06;100.00;100491.63;5072087;28;20067;-44
2022/02/18 04:46:21;;;;;;;22.60;4.15;;;;;;;6.09;100.00;100494.06;5073098;28;20520;-46
2022/02/18 04:48:52;;;;;;;24.95;4.13;;;;;;;6.06;100.00;100489.84;5073052;28;20053;-55
2022/02/18 04:51:20;;;;;;;27.05;4.18;;;;;;;6.12;100.00;100480.84;5073213;28;20044;-56
2022/02/18 04:53:48;;;;;;;25.17;3.88;;;;;;;6.07;100.00;100467.22;5072987;28;20491;-56
2022/02/18 04:56:16;;;;;;;22.13;3.80;;;;;;;6.07;100.00;100462.81;5072462;28;20521;-56
2022/02/18 04:58:46;;;;;;;26.80;4.63;;;;;;;5.99;100.00;100485.88;5072926;28;20098;-45
2022/02/18 05:01:16;;;;;;;24.23;5.15;;;;;;;5.94;100.00;100490.44;5072271;28;20045;-45
2022/02/18 05:03:44;;;;;;;20.63;4.70;;;;;;;5.98;100.00;100494.63;5071130;28;20040;-45
2022/02/18 05:06:12;;;;;;;22.17;3.95;;;;;;;6.05;100.00;100482.09;5068496;28;20052;-54
2022/02/18 05:08:40;;;;;;;22.67;3.10;;;;;;;5.96;100.00;100472.97;5071369;28;20051;-55
2022/02/18 05:11:09;;;;;;;23.73;3.83;;;;;;;5.92;100.00;100459.22;5072205;28;20052;-56
2022/02/18 05:13:37;;;;;;;27.45;3.60;;;;;;;5.99;100.00;100454.56;5069280;28;20043;-55
2022/02/18 05:16:07;;;;;;;20.67;3.05;;;;;;;6.10;100.00;100443.53;5069013;28;20049;-43
2022/02/18 05:18:37;;;;;;;21.95;3.70;;;;;;;6.02;100.00;100428.28;5072836;28;20040;-43
2022/02/18 05:21:06;;;;;;;26.63;4.95;;;;;;;6.04;100.00;100409.91;5072764;28;20044;-55
2022/02/18 05:23:34;;;;;;;25.25;4.00;;;;;;;6.08;100.00;100388.81;5069486;28;20041;-45
2022/02/18 05:26:02;;;;;;;23.60;4.85;;;;;;;6.05;100.00;100412.47;5069266;28;20040;-54
2022/02/18 05:28:30;;;;;;;34.95;4.10;;;;;;;6.03;100.00;100400.41;5072274;28;20095;-45
2022/02/18 05:30:58;;;;;;;22.38;4.07;;;;;;;6.18;100.00;100378.69;5072288;28;20059;-55
2022/02/18 05:33:28;;;;;;;30.95;5.85;;;;;;;6.13;100.00;100388.53;5069818;28;20044;-56
2022/02/18 05:35:56;;;;;;;34.13;6.25;;;;;;;6.05;100.00;100396.81;5067938;28;20415;-55
2022/02/18 05:38:25;;;;;;;27.55;5.28;;;;;;;6.11;100.00;100379.09;5072081;28;20048;-55
2022/02/18 05:40:53;;;;;;;29.98;4.95;;;;;;;6.07;100.00;100374.06;5070852;28;20127;-55
2022/02/18 05:43:21;;;;;;;27.83;4.30;;;;;;;6.08;100.00;100354.88;5069026;28;20049;-55
2022/02/18 05:45:49;;;;;;;24.48;4.75;;;;;;;6.15;100.00;100358.00;5070467;28;20072;-55
2022/02/18 05:48:17;;;;;;;21.60;3.08;;;;;;;6.17;100.00;100348.28;5071707;28;20110;-55
2022/02/18 05:50:47;;;;;;;26.70;4.70;;;;;;;6.15;100.00;100333.63;5071162;28;20067;-54
2022/02/18 05:53:15;;;;;;;30.17;5.72;;;;;;;6.16;100.00;100330.97;5071016;28;20044;-54
2022/02/18 05:55:43;;;;;;;23.52;5.20;;;;;;;6.18;100.00;100302.16;5068471;28;20495;-55
2022/02/18 05:58:11;;;;;;;28.10;4.43;;;;;;;6.22;100.00;100283.59;5070660;28;20543;-54
2022/02/18 06:00:39;;;;;;;21.75;3.47;;;;;;;6.29;100.00;100278.03;5068201;28;20071;-54
2022/02/18 06:03:07;;;;;;;26.52;4.18;;;;;;;6.20;100.00;100285.47;5067617;28;20057;-54
2022/02/18 06:05:35;;;;;;;31.65;4.57;;;;;;;6.20;100.00;100285.47;5072089;28;20472;-52
2022/02/18 06:08:05;;;;;;;22.77;4.82;;;;;;;6.19;100.00;100273.34;5072050;28;20056;-54
2022/02/18 06:10:33;;;;;;;23.40;3.83;;;;;;;6.28;100.00;100266.75;5070902;28;20052;-54
2022/02/18 06:13:01;;;;;;;27.38;3.72;;;;;;;6.18;100.00;100255.16;5072051;28;20044;-55
2022/02/18 06:15:29;;;;;;;25.80;4.68;;;;;;;6.33;100.00;100238.59;5071828;28;20068;-52
2022/02/18 06:17:58;;;;;;;24.02;4.60;;;;;;;6.27;100.00;100231.09;5071901;28;20040;-55
2022/02/18 06:20:27;;;;;;;22.92;4.15;;;;;;;6.24;100.00;100208.63;5072100;28;20040;-51
2022/02/18 06:22:54;;;;;;;29.20;4.88;;;;;;;6.19;100.00;100221.09;5068134;28;20056;-55
2022/02/18 06:25:24;;;;;;;26.27;3.92;;;;;;;6.22;100.00;100210.47;5068411;28;20045;-54
2022/02/18 06:28:03;;;;;;;17.83;3.22;;;;;;;6.21;100.00;100206.19;5070735;28;20059;-55
2022/02/18 06:30:32;;;;;;;15.07;2.88;;;;;;;6.22;100.00;100209.66;5059790;28;20052;-53
2022/02/18 06:33:01;;;;;;;28.80;4.88;;;;;;;6.24;100.00;100187.75;5056224;28;20049;-53
2022/02/18 06:35:29;;;;;;;26.42;3.83;;;;;;;6.17;100.00;100175.94;5060279;28;20045;-50
2022/02/18 06:37:57;;;;;;;19.85;4.10;;;;;;;6.16;100.00;100166.47;5062070;28;20052;-53
2022/02/18 06:40:27;;;;;;;24.05;5.93;;;;;;;6.19;100.00;100154.97;5057375;28;20049;-53
2022/02/18 06:42:55;;;;;;;22.23;3.90;;;;;;;6.21;100.00;100143.50;5063854;28;20534;-52
2022/02/18 06:45:23;;;;;;;24.00;5.40;;;;;;;6.22;100.00;100139.16;5060825;28;20102;-52
2022/02/18 06:47:51;;;;;;;18.25;4.28;;;;;;;6.25;100.00;100121.50;5062013;28;20483;-54
2022/02/18 06:50:20;;;;;;;24.55;4.85;;;;;;;6.22;100.00;100107.81;5061228;28;20036;-54
2022/02/18 06:52:49;;;;;;;28.33;4.25;;;;;;;6.19;100.00;100102.75;5057309;28;20505;-55
2022/02/18 06:55:21;;;;;;;22.25;4.47;;;;;;;6.18;100.00;100090.66;5055101;28;20099;-53
2022/02/18 06:57:53;;;;;;;;;;;;;;;6.19;100.00;100074.03;5062731;28;20396;-54
2022/02/18 07:00:23;;;;;;;26.75;4.82;;;;;;;6.11;100.00;100056.22;5061881;28;19921;-50
2022/02/18 07:02:51;;;;;;;29.27;5.63;;;;;;;6.06;100.00;100045.19;5056067;28;20055;-54
2022/02/18 07:05:19;;;;;;;27.30;3.60;;;;;;;6.09;100.00;100032.81;5062096;28;20124;-50
2022/02/18 07:07:47;;;;;;;22.05;3.35;;;;;;;6.05;100.00;100025.25;5068238;28;20041;-53
2022/02/18 07:10:16;;;;;;;23.33;4.63;;;;;;;5.99;100.00;100026.44;5058627;28;20068;-53
2022/02/18 07:12:44;;;;;;;23.30;3.03;;;;;;;6.06;100.00;100038.19;5059142;28;20384;-47
2022/02/18 07:15:14;;;;;;;25.95;3.58;;;;;;;5.99;100.00;100015.19;5062245;28;20041;-52
2022/02/18 07:17:43;;;;;;;16.83;3.95;;;;;;;6.00;100.00;100006.41;5063627;28;20057;-44
2022/02/18 07:20:12;;;;;;;27.20;4.63;;;;;;;5.93;100.00;100009.34;5064885;28;20067;-55
2022/02/18 07:22:42;;;;;;;21.98;4.25;;;;;;;6.05;100.00;99991.31;5067632;28;20053;-47
2022/02/18 07:25:14;;;;;;;25.90;4.28;;;;;;;6.04;100.00;99987.00;5061773;28;20099;-44
2022/02/18 07:27:44;;;;;;;15.07;3.78;;;;;;;6.02;100.00;99981.06;5063086;28;20049;-55
2022/02/18 07:30:15;;;;;;;27.73;3.95;;;;;;;6.06;100.00;99972.09;5064123;28;20048;-53
2022/02/18 07:32:44;;;;;;;20.48;3.63;;;;;;;6.13;100.00;99965.56;5052643;28;20049;-45
2022/02/18 07:35:12;;;;;;;17.63;4.10;;;;;;;6.12;100.00;99956.06;5051304;28;20456;-46
2022/02/18 07:37:42;;;;;;;26.35;3.97;;;;;;;6.13;100.00;99962.97;5054489;28;20556;-54
2022/02/18 07:40:13;;;;;;;17.25;4.15;;;;;;;6.15;100.00;99955.91;5058757;28;20129;-55
2022/02/18 07:42:42;;;;;;;27.05;4.90;;;;;;;6.17;100.00;99934.91;5058276;28;20072;-55
2022/02/18 07:45:11;;;;;;;19.00;3.63;;;;;;;6.17;100.00;99935.72;5054626;28;20075;-55
2022/02/18 07:47:41;;;;;;;16.23;4.20;;;;;;;6.24;100.00;99937.06;5059753;28;20072;-56
2022/02/18 07:50:10;;;;;;;19.30;4.28;;;;;;;6.27;100.00;99930.78;5061927;28;20052;-47
2022/02/18 07:52:39;;;;;;;24.38;5.78;;;;;;;6.33;100.00;99896.47;5061327;28;20428;-55
2022/02/18 07:55:08;;;;;;;21.75;4.13;;;;;;;6.36;100.00;99870.16;5062059;28;20120;-54
2022/02/18 07:57:37;;;;;;;24.23;4.72;;;;;;;6.38;100.00;99876.13;5090600;28;20052;-55
2022/02/18 08:00:07;;;;;;;18.30;3.78;;;;;;;6.34;100.00;99873.78;5056112;28;20048;-55
2022/02/18 08:02:35;;;;;;;19.60;4.35;;;;;;;6.35;100.00;99868.47;5057946;28;20480;-46
2022/02/18 08:05:05;;;;;;;17.85;3.55;;;;;;;6.43;100.00;99865.38;5056032;28;20045;-44
2022/02/18 08:07:33;;;;;;;23.58;4.78;;;;;;;6.45;100.00;99860.91;5060817;28;20140;-47
2022/02/18 08:10:02;;;;;;;21.88;5.15;;;;;;;6.47;100.00;99845.13;5060543;28;20040;-45
2022/02/18 08:12:30;;;;;;;24.70;4.72;;;;;;;6.50;100.00;99848.38;5060503;28;20049;-45
2022/02/18 08:14:58;;;;;;;22.67;4.60;;;;;;;6.53;100.00;99845.59;5060369;28;20041;-48
2022/02/18 08:17:26;;;;;;;19.17;4.32;;;;;;;6.58;100.00;99843.50;5066836;28;20500;-53
2022/02/18 08:19:58;;;;;;;23.50;4.13;;;;;;;6.62;100.00;99836.31;5057293;28;20049;-55
2022/02/18 08:22:27;;;;;;;20.27;4.23;;;;;;;6.69;100.00;99823.69;5062955;28;20453;-52
2022/02/18 08:24:55;;;;;;;22.45;4.20;;;;;;;6.76;100.00;99811.88;5062283;28;20055;-46
2022/02/18 08:27:24;;;;;;;19.48;4.20;;;;;;;6.73;100.00;99806.88;5069339;28;20647;-54
2022/02/18 08:29:52;;;;;;;16.67;3.45;;;;;;;6.77;100.00;99798.72;5060474;28;20049;-46
2022/02/18 08:32:20;;;;;;;19.38;4.25;;;;;;;6.76;100.00;99780.53;5061349;28;20049;-54
2022/02/18 08:34:48;;;;;;;20.67;3.88;;;;;;;6.80;100.00;99776.78;5063848;28;20033;-54
2022/02/18 08:37:16;;;;;;;25.55;4.53;;;;;;;6.84;100.00;99778.22;5062372;28;20036;-48
2022/02/18 08:39:46;;;;;;;19.45;4.25;;;;;;;6.89;100.00;99770.94;5058978;28;20040;-55
2022/02/18 08:42:19;;;;;;;20.27;3.30;;;;;;;6.94;100.00;99768.03;5060179;28;20081;-55
2022/02/18 08:44:47;;;;;;;21.45;4.40;;;;;;;6.98;100.00;99760.81;5063703;28;20503;-54
2022/02/18 08:47:17;;;;;;;17.73;4.65;;;;;;;7.03;100.00;99748.25;5055291;28;20041;-54
2022/02/18 08:49:45;;;;;;;15.65;3.30;;;;;;;7.08;100.00;99736.53;5053805;28;20479;-55
2022/02/18 08:52:13;;;;;;;17.42;4.38;;;;;;;7.15;100.00;99746.59;5061248;28;20047;-54
2022/02/18 08:54:41;;;;;;;23.58;4.45;;;;;;;7.19;100.00;99733.19;5060071;28;20075;-46
2022/02/18 08:57:13;;;;;;;12.43;3.17;;;;;;;7.22;100.00;99730.38;5061317;28;20045;-45
2022/02/18 08:59:41;;;;;;;13.00;3.22;;;;;;;7.24;100.00;99733.72;5061166;28;20040;-54
2022/02/18 09:02:11;;;;;;;15.15;3.45;;;;;;;7.30;100.00;99723.78;5054678;28;20055;-55
2022/02/18 09:04:39;;;;;;;20.60;4.55;;;;;;;7.35;100.00;99717.28;5065295;28;20456;-55
2022/02/18 09:07:09;;;;;;;16.95;3.45;;;;;;;7.38;100.00;99704.00;5059848;28;20128;-52
2022/02/18 09:09:37;;;;;;;16.77;3.97;;;;;;;7.46;100.00;99695.63;5060465;28;20110;-46
2022/02/18 09:12:06;;;;;;;15.02;3.38;;;;;;;7.52;100.00;99674.25;5057943;28;20051;-45
2022/02/18 09:14:35;;;;;;;17.42;4.40;;;;;;;7.61;100.00;99670.97;5053488;28;20122;-50
2022/02/18 09:17:04;;;;;;;14.30;3.80;;;;;;;7.64;100.00;99666.47;5069996;28;20044;-54
2022/02/18 09:19:32;;;;;;;17.00;3.95;;;;;;;7.74;100.00;99667.47;5057776;28;20481;-51
2022/02/18 09:22:00;;;;;;;17.67;4.22;;;;;;;7.81;100.00;99665.25;5065392;28;20399;-47
2022/02/18 09:24:28;;;;;;;11.70;4.05;;;;;;;7.86;100.00;99661.34;5053023;28;20131;-47
2022/02/18 09:26:57;;;;;;;11.65;3.50;;;;;;;7.98;100.00;99653.56;5052620;28;20096;-55
2022/02/18 09:29:26;;;;;;;13.00;3.78;;;;;;;7.98;100.00;99643.09;5049236;28;20053;-49
2022/02/18 09:31:56;;;;;;;15.45;3.35;;;;;;;8.02;100.00;99637.50;5046706;28;20063;-49
2022/02/18 09:34:26;;;;;;;10.85;3.80;;;;;;;8.08;100.00;99626.56;5052937;28;20524;-54
2022/02/18 09:36:55;;;;;;;10.38;3.83;;;;;;;8.17;100.00;99617.22;5052521;28;20044;-46
2022/02/18 09:39:23;;;;;;;11.05;3.28;;;;;;;8.23;100.00;99621.97;5052645;28;20496;-56
2022/02/18 09:41:52;;;;;;;12.48;3.20;;;;;;;8.30;100.00;99611.88;5052219;28;20428;-48
2022/02/18 09:44:25;;;;;;;10.20;3.42;;;;;;;8.33;100.00;99608.19;5052389;28;20446;-53
2022/02/18 09:46:53;;;;;;;7.97;3.10;;;;;;;8.36;100.00;99615.84;5051074;28;20630;-45
2022/02/18 09:49:24;;;;;;;12.35;3.45;;;;;;;8.40;100.00;99607.63;5048585;28;20083;-45
2022/02/18 09:51:52;;;;;;;7.50;3.30;;;;;;;8.46;100.00;99593.25;5050791;28;20051;-47
2022/02/18 09:54:20;;;;;;;11.38;3.53;;;;;;;8.47;100.00;99597.53;5052071;28;20208;-55
2022/02/18 09:56:49;;;;;;;8.85;3.08;;;;;;;8.54;100.00;99582.19;5052215;28;20037;-47
2022/02/18 09:59:17;;;;;;;11.32;3.53;;;;;;;8.59;100.00;99574.81;5052183;28;20049;-55
2022/02/18 10:01:46;;;;;;;7.95;3.20;;;;;;;8.59;100.00;99573.03;5052205;28;20072;-55
2022/02/18 10:04:14;;;;;;;7.47;2.70;;;;;;;8.61;100.00;99567.66;5052374;28;20098;-56
2022/02/18 10:06:44;;;;;;;8.93;3.20;;;;;;;8.69;100.00;99559.22;5052038;28;20037;-47
2022/02/18 10:09:12;;;;;;;11.52;3.58;;;;;;;8.74;100.00;99543.94;5051978;28;20040;-54
2022/02/18 10:11:58;;;;;;;8.50;2.95;;;;;;;8.76;100.00;99540.25;5052047;28;20403;-55
2022/02/18 10:14:26;;;;;;;7.10;3.03;;;;;;;8.81;100.00;99537.28;5052018;28;20056;-54
2022/02/18 10:16:54;;;;;;;8.40;3.38;;;;;;;8.80;100.00;99525.94;5052237;28;20539;-46
2022/02/18 10:19:23;;;;;;;9.10;3.58;;;;;;;8.86;100.00;99524.66;5051915;28;20056;-49
2022/02/18 10:22:03;;;;;;;8.98;3.83;;;;;;;8.93;100.00;99514.47;5051927;28;20053;-45
2022/02/18 10:24:39;;;;;;;6.45;3.00;;;;;;;9.03;100.00;99499.69;5051837;28;20041;-55
2022/02/18 10:27:07;;;;;;;5.05;2.90;;;;;;;9.03;100.00;99499.69;5051918;28;20047;-48
2022/02/18 10:29:35;;;;;;;8.18;3.25;;;;;;;9.11;100.00;99492.03;5051612;28;20128;-56
2022/02/18 10:32:11;;;;;;;8.38;3.35;;;;;;;9.14;100.00;99485.72;5051132;28;20060;-54
2022/02/18 10:34:51;;;;;;;6.63;3.40;;;;;;;9.24;100.00;99473.53;5048611;28;20048;-46
2022/02/18 10:37:21;;;;;;;6.97;3.08;;;;;;;9.30;100.00;99465.16;5053459;28;20499;-56
2022/02/18 10:39:49;;;;;;;5.43;3.00;;;;;;;9.35;100.00;99449.03;5055640;28;20060;-56
2022/02/18 10:42:18;;;;;;;5.60;2.80;;;;;;;9.37;100.00;99438.44;5055472;28;20091;-48
2022/02/18 10:45:08;;;;;;;8.05;3.28;;;;;;;9.41;100.00;99435.41;5051738;28;20077;-45
2022/02/18 10:47:38;;;;;;;6.68;2.85;;;;;;;9.44;100.00;99424.66;5052751;28;20041;-55
2022/02/18 10:50:16;;;;;;;5.35;2.90;;;;;;;9.44;100.00;99426.47;5055248;28;20526;-56
2022/02/18 10:53:09;;;;;;;6.65;3.35;;;;;;;9.51;100.00;99414.47;5055321;28;20052;-55
2022/02/18 10:55:52;;;;;;;5.15;2.55;;;;;;;9.54;100.00;99408.16;5055666;28;20048;-44
2022/02/18 10:58:25;;;;;;;6.10;2.50;;;;;;;9.62;100.00;99390.78;5055815;28;20488;-44
2022/02/18 11:01:09;;;;;;;8.20;2.70;;;;;;;9.68;100.00;99378.09;5051214;28;20056;-44
2022/02/18 11:03:39;;;;;;;7.95;2.33;;;;;;;9.73;100.00;99376.75;5051871;28;20041;-46
2022/02/18 11:06:21;;;;;;;5.03;2.30;;;;;;;9.75;100.00;99371.41;5055072;28;20057;-45
2022/02/18 11:08:53;;;;;;;4.28;1.98;;;;;;;9.78;100.00;99374.56;5055159;28;20045;-44
2022/02/18 11:11:22;;;;;;;6.40;1.90;;;;;;;9.81;100.00;99361.19;5055171;28;20052;-46
2022/02/18 11:13:51;;;;;;;3.00;1.63;;;;;;;9.85;100.00;99353.88;5055089;28;20491;-47
2022/02/18 11:16:21;;;;;;;3.42;1.67;;;;;;;9.91;100.00;99348.13;5055274;28;20045;-56
2022/02/18 11:18:51;;;;;;;6.18;1.80;;;;;;;9.93;100.00;99345.34;5055156;28;20053;-55
2022/02/18 11:21:21;;;;;;;2.42;1.33;;;;;;;9.99;100.00;99329.03;5052536;28;20063;-45
2022/02/18 11:23:51;;;;;;;2.63;1.27;;;;;;;10.09;100.00;99324.66;5051410;28;20095;-55
2022/02/18 11:26:20;;;;;;;3.88;1.88;;;;;;;10.10;100.00;99325.50;5054398;28;20044;-57
2022/02/18 11:28:50;;;;;;;2.65;1.35;;;;;;;10.12;100.00;99308.63;5054631;28;20041;-44
2022/02/18 11:31:20;;;;;;;2.33;1.00;;;;;;;10.18;100.00;99304.63;5054871;28;20051;-49